createdAt,value
2023-05-05T00:01:25.150Z,97950.09
2023-05-05T00:03:56.027Z,97949.59
2023-05-05T00:06:28.553Z,97951.94
2023-05-05T00:09:00.162Z,97940.38
2023-05-05T00:11:29.725Z,97946.22
2023-05-05T00:13:59.450Z,97949.63
2023-05-05T00:16:29.822Z,97942.59
2023-05-05T00:19:00.734Z,97944.47
2023-05-05T00:21:30.559Z,97950.78
2023-05-05T00:24:02.176Z,97941.06
2023-05-05T00:26:32.574Z,97942.00
2023-05-05T00:29:02.500Z,97937.41
2023-05-05T00:31:32.786Z,97933.97
2023-05-05T00:34:02.760Z,97938.66
2023-05-05T00:36:32.603Z,97931.41
2023-05-05T00:39:04.114Z,97928.28
2023-05-05T00:41:34.023Z,97924.56
2023-05-05T00:44:05.056Z,97918.09
2023-05-05T00:46:36.670Z,97920.53
2023-05-05T00:49:06.730Z,97919.53
2023-05-05T00:51:36.927Z,97919.31
2023-05-05T00:54:08.974Z,97917.75
2023-05-05T00:56:39.664Z,97910.78
2023-05-05T00:59:09.576Z,97909.53
2023-05-05T01:01:39.876Z,97903.16
2023-05-05T01:04:10.445Z,97900.72
2023-05-05T01:06:50.811Z,97902.31
2023-05-05T01:09:28.067Z,97901.56
2023-05-05T01:12:07.568Z,97897.91
2023-05-05T01:14:41.204Z,97892.44
2023-05-05T01:17:18.340Z,97904.28
2023-05-05T01:20:04.698Z,97888.38
2023-05-05T01:22:40.281Z,97892.78
2023-05-05T01:25:33.768Z,97893.38
2023-05-05T01:28:18.688Z,97892.06
2023-05-05T01:31:19.280Z,97890.72
2023-05-05T01:33:57.130Z,97893.63
2023-05-05T01:36:32.870Z,97891.50
2023-05-05T01:39:05.072Z,97888.19
2023-05-05T01:41:39.598Z,97889.44
2023-05-05T01:44:11.036Z,97891.28
2023-05-05T01:46:41.516Z,97888.38
2023-05-05T01:49:14.112Z,97885.75
2023-05-05T01:51:44.599Z,97880.38
2023-05-05T01:54:16.029Z,97885.50
2023-05-05T01:56:46.609Z,97879.53
2023-05-05T01:59:17.216Z,97878.00
2023-05-05T02:01:48.944Z,97878.00
2023-05-05T02:04:22.952Z,97877.34
2023-05-05T02:06:54.247Z,97871.13
2023-05-05T02:09:28.884Z,97873.50
2023-05-05T02:12:00.543Z,97870.84
2023-05-05T02:14:32.595Z,97871.47
2023-05-05T02:17:05.642Z,97864.16
2023-05-05T02:19:41.194Z,97864.53
2023-05-05T02:22:13.279Z,97863.47
2023-05-05T02:24:43.489Z,97859.63
2023-05-05T02:27:14.705Z,97861.06
2023-05-05T02:29:49.887Z,97858.78
2023-05-05T02:32:22.218Z,97856.75
2023-05-05T02:34:55.309Z,97856.75
2023-05-05T02:37:26.821Z,97861.91
2023-05-05T02:40:01.486Z,97852.28
2023-05-05T02:42:37.951Z,97860.69
2023-05-05T02:45:12.505Z,97852.31
2023-05-05T02:47:42.685Z,97862.63
2023-05-05T02:50:15.979Z,97861.19
2023-05-05T02:52:46.082Z,97861.22
2023-05-05T02:55:16.120Z,97858.19
2023-05-05T02:57:51.776Z,97850.00
2023-05-05T03:00:26.339Z,97853.78
2023-05-05T03:03:03.770Z,97850.59
2023-05-05T03:05:44.102Z,97848.25
2023-05-05T03:08:19.326Z,97850.47
2023-05-05T03:11:02.229Z,97848.91
2023-05-05T03:13:33.330Z,97845.81
2023-05-05T03:16:07.323Z,97851.44
2023-05-05T03:18:38.794Z,97847.81
2023-05-05T03:21:15.046Z,97849.00
2023-05-05T03:23:46.851Z,97847.44
2023-05-05T03:26:20.271Z,97851.66
2023-05-05T03:28:50.217Z,97847.63
2023-05-05T03:31:21.781Z,97848.47
2023-05-05T03:33:51.953Z,97845.16
2023-05-05T03:36:24.218Z,97847.53
2023-05-05T03:38:54.331Z,97839.88
2023-05-05T03:41:24.635Z,97844.75
2023-05-05T03:43:54.637Z,97843.56
2023-05-05T03:46:24.865Z,97841.31
2023-05-05T03:48:57.393Z,97838.72
2023-05-05T03:51:28.774Z,97841.16
2023-05-05T03:53:59.201Z,97837.69
2023-05-05T03:56:29.234Z,97839.91
2023-05-05T03:58:59.438Z,97839.94
2023-05-05T04:01:31.804Z,97845.63
2023-05-05T04:04:01.885Z,97845.69
2023-05-05T04:06:33.824Z,97851.03
2023-05-05T04:09:04.372Z,97850.06
2023-05-05T04:11:34.577Z,97859.06
2023-05-05T04:14:05.913Z,97853.38
2023-05-05T04:16:35.948Z,97857.22
2023-05-05T04:19:06.967Z,97852.34
2023-05-05T04:21:44.249Z,97861.53
2023-05-05T04:24:15.162Z,97857.84
2023-05-05T04:26:45.171Z,97860.13
2023-05-05T04:29:14.724Z,97864.13
2023-05-05T04:31:44.965Z,97858.50
2023-05-05T04:34:15.508Z,97864.44
2023-05-05T04:36:46.818Z,97865.47
2023-05-05T04:39:17.015Z,97866.53
2023-05-05T04:41:46.995Z,97862.94
2023-05-05T04:44:17.927Z,97857.63
2023-05-05T04:46:47.992Z,97862.38
2023-05-05T04:49:18.774Z,97860.25
2023-05-05T04:51:52.721Z,97869.78
2023-05-05T04:54:23.390Z,97870.66
2023-05-05T04:56:53.618Z,97872.06
2023-05-05T04:59:24.535Z,97874.41
2023-05-05T05:01:54.620Z,97871.94
2023-05-05T05:04:26.782Z,97884.06
2023-05-05T05:06:59.395Z,97876.41
2023-05-05T05:09:30.109Z,97872.78
2023-05-05T05:12:03.530Z,97876.28
2023-05-05T05:14:38.196Z,97875.88
2023-05-05T05:17:09.425Z,97879.63
2023-05-05T05:19:39.592Z,97874.63
2023-05-05T05:22:13.411Z,97878.25
2023-05-05T05:24:43.070Z,97878.03
2023-05-05T05:27:13.680Z,97878.69
2023-05-05T05:29:43.880Z,97887.28
2023-05-05T05:32:13.633Z,97879.19
2023-05-05T05:34:43.282Z,97877.38
2023-05-05T05:37:15.734Z,97879.13
2023-05-05T05:39:45.996Z,97878.22
2023-05-05T05:42:16.504Z,97880.84
2023-05-05T05:44:47.038Z,97877.47
2023-05-05T05:47:16.462Z,97878.38
2023-05-05T05:49:46.457Z,97873.88
2023-05-05T05:52:18.129Z,97873.28
2023-05-05T05:54:47.982Z,97864.88
2023-05-05T05:57:18.190Z,97864.56
2023-05-05T05:59:48.892Z,97853.06
2023-05-05T06:02:19.399Z,97856.56
2023-05-05T06:04:50.023Z,97860.50
2023-05-05T06:07:21.745Z,97859.78
2023-05-05T06:09:52.269Z,97870.28
2023-05-05T06:12:23.310Z,97865.56
2023-05-05T06:14:53.684Z,97869.22
2023-05-05T06:17:24.281Z,97870.34
2023-05-05T06:19:55.110Z,97874.84
2023-05-05T06:22:30.135Z,97869.25
2023-05-05T06:25:01.353Z,97862.63
2023-05-05T06:27:31.574Z,97865.50
2023-05-05T06:30:01.962Z,97865.56
2023-05-05T06:32:31.852Z,97855.59
2023-05-05T06:35:02.832Z,97857.31
2023-05-05T06:37:34.140Z,97852.38
2023-05-05T06:40:03.972Z,97848.44
2023-05-05T06:42:34.579Z,97854.81
2023-05-05T06:45:04.938Z,97853.84
2023-05-05T06:47:34.916Z,97854.03
2023-05-05T06:50:05.911Z,97856.91
2023-05-05T06:52:37.406Z,97854.63
2023-05-05T06:55:09.242Z,97853.94
2023-05-05T06:57:39.903Z,97850.47
2023-05-05T07:00:15.497Z,97851.81
2023-05-05T07:02:47.929Z,97850.06
2023-05-05T07:05:18.584Z,97849.78
2023-05-05T07:07:59.280Z,97854.88
2023-05-05T07:10:31.942Z,97843.56
2023-05-05T07:13:02.871Z,97859.28
2023-05-05T07:15:32.660Z,97854.19
2023-05-05T07:18:03.728Z,97838.25
2023-05-05T07:20:33.764Z,97839.38
2023-05-05T07:23:06.073Z,97838.81
2023-05-05T07:25:36.637Z,97834.38
2023-05-05T07:28:07.131Z,97835.72
2023-05-05T07:30:37.245Z,97834.22
2023-05-05T07:33:08.113Z,97833.03
2023-05-05T07:35:39.246Z,97828.31
2023-05-05T07:38:12.838Z,97830.81
2023-05-05T07:40:43.483Z,97825.19
2023-05-05T07:43:13.449Z,97822.34
2023-05-05T07:45:44.178Z,97819.63
2023-05-05T07:48:14.882Z,97823.66
2023-05-05T07:50:44.754Z,97824.00
2023-05-05T07:53:17.511Z,97818.88
2023-05-05T07:55:50.251Z,97821.94
2023-05-05T07:58:20.242Z,97821.53
2023-05-05T08:00:51.593Z,97819.34
2023-05-05T08:03:25.137Z,97817.44
2023-05-05T08:05:58.390Z,97824.34
2023-05-05T08:08:30.528Z,97822.63
2023-05-05T08:11:01.640Z,97825.03
2023-05-05T08:13:32.440Z,97824.41
2023-05-05T08:16:03.100Z,97817.84
2023-05-05T08:18:33.870Z,97812.47
2023-05-05T08:21:06.012Z,97814.41
2023-05-05T08:23:39.092Z,97818.91
2023-05-05T08:26:11.935Z,97816.50
2023-05-05T08:28:42.397Z,97814.78
2023-05-05T08:31:12.899Z,97809.00
2023-05-05T08:33:44.360Z,97810.94
2023-05-05T08:36:15.106Z,97804.66
2023-05-05T08:38:46.755Z,97803.25
2023-05-05T08:41:20.747Z,97810.56
2023-05-05T08:43:51.457Z,97808.03
2023-05-05T08:46:21.816Z,97810.03
2023-05-05T08:48:52.767Z,97806.16
2023-05-05T08:51:22.943Z,97802.91
2023-05-05T08:54:00.320Z,97804.91
2023-05-05T08:56:35.427Z,97803.28
2023-05-05T08:59:06.112Z,97801.63
2023-05-05T09:01:49.754Z,97806.66
2023-05-05T09:04:21.225Z,97800.66
2023-05-05T09:06:52.305Z,97802.84
2023-05-05T09:09:25.253Z,97802.47
2023-05-05T09:11:56.894Z,97799.22
2023-05-05T09:14:27.353Z,97792.00
2023-05-05T09:16:57.414Z,97792.09
2023-05-05T09:19:28.613Z,97791.84
2023-05-05T09:21:59.645Z,97789.66
2023-05-05T09:24:33.193Z,97787.34
2023-05-05T09:27:04.817Z,97786.91
2023-05-05T09:29:36.326Z,97775.81
2023-05-05T09:32:09.267Z,97774.88
2023-05-05T09:34:39.658Z,97780.03
2023-05-05T09:37:10.860Z,97774.97
2023-05-05T09:39:56.482Z,97782.09
2023-05-05T09:42:27.272Z,97779.13
2023-05-05T09:44:59.892Z,97778.69
2023-05-05T09:47:37.240Z,97781.75
2023-05-05T09:50:07.945Z,97775.88
2023-05-05T09:52:39.065Z,97770.78
2023-05-05T09:55:19.936Z,97775.09
2023-05-05T09:57:50.615Z,97768.06
2023-05-05T10:00:21.633Z,97769.72
2023-05-05T10:02:52.011Z,97766.66
2023-05-05T10:05:22.435Z,97768.75
2023-05-05T10:07:53.463Z,97770.09
2023-05-05T10:10:25.131Z,97768.84
2023-05-05T10:12:58.750Z,97768.63
2023-05-05T10:15:29.232Z,97758.22
2023-05-05T10:18:07.790Z,97751.84
2023-05-05T10:20:39.080Z,97750.44
2023-05-05T10:23:11.860Z,97757.41
2023-05-05T10:25:48.313Z,97746.06
2023-05-05T10:28:24.875Z,97747.00
2023-05-05T10:30:58.752Z,97734.50
2023-05-05T10:33:38.340Z,97738.47
2023-05-05T10:36:09.994Z,97737.41
2023-05-05T10:38:40.675Z,97733.91
2023-05-05T10:41:14.126Z,97729.16
2023-05-05T10:43:44.587Z,97725.34
2023-05-05T10:46:16.135Z,97723.50
2023-05-05T10:48:51.500Z,97720.44
2023-05-05T10:51:39.320Z,97714.94
2023-05-05T10:54:16.184Z,97701.31
2023-05-05T10:56:50.800Z,97705.31
2023-05-05T10:59:44.955Z,97707.56
2023-05-05T11:02:22.726Z,97704.25
2023-05-05T11:05:15.764Z,97696.72
2023-05-05T11:07:46.817Z,97695.03
2023-05-05T11:10:21.087Z,97692.44
2023-05-05T11:13:23.175Z,97687.91
2023-05-05T11:15:54.554Z,97693.06
2023-05-05T11:18:38.558Z,97688.16
2023-05-05T11:21:20.146Z,97692.66
2023-05-05T11:23:51.706Z,97688.44
2023-05-05T11:26:53.499Z,97684.47
2023-05-05T11:29:25.616Z,97685.88
2023-05-05T12:21:22.865Z,97649.31
2023-05-05T12:23:53.793Z,97648.03
2023-05-05T12:26:28.952Z,97645.41
2023-05-05T12:29:01.887Z,97643.63
2023-05-05T12:31:39.831Z,97641.31
2023-05-05T12:34:12.520Z,97645.50
2023-05-05T12:36:43.989Z,97641.50
2023-05-05T12:39:15.895Z,97635.44
2023-05-05T12:41:46.075Z,97636.13
2023-05-05T12:44:16.585Z,97639.00
2023-05-05T12:46:48.330Z,97635.94
2023-05-05T12:49:18.784Z,97633.38
2023-05-05T12:51:58.719Z,97625.19
2023-05-05T12:54:31.052Z,97628.00
2023-05-05T12:57:01.907Z,97626.72
2023-05-05T12:59:33.654Z,97614.84
2023-05-05T13:02:04.257Z,97619.66
2023-05-05T13:04:35.142Z,97607.84
2023-05-05T13:07:14.869Z,97604.81
2023-05-05T13:09:45.231Z,97605.59
2023-05-05T13:12:15.616Z,97604.31
2023-05-05T13:14:45.961Z,97596.44
2023-05-05T13:17:17.231Z,97594.66
2023-05-05T13:19:47.996Z,97596.97
2023-05-05T13:22:23.430Z,97598.00
2023-05-05T13:24:53.575Z,97587.41
2023-05-05T13:27:23.871Z,97587.91
2023-05-05T13:29:53.937Z,97576.81
2023-05-05T13:32:24.152Z,97581.06
2023-05-05T13:34:53.475Z,97578.03
2023-05-05T13:37:25.832Z,97567.91
2023-05-05T13:39:59.813Z,97564.34
2023-05-05T13:42:30.690Z,97566.91
2023-05-05T13:45:01.564Z,97557.56
2023-05-05T13:47:34.479Z,97567.38
2023-05-05T13:50:04.637Z,97557.50
2023-05-05T13:52:36.169Z,97551.50
2023-05-05T13:55:08.008Z,97551.72
2023-05-05T13:57:38.585Z,97542.63
2023-05-05T14:00:10.901Z,97534.81
2023-05-05T14:02:41.413Z,97539.25
2023-05-05T14:05:12.225Z,97540.63
2023-05-05T14:07:43.752Z,97543.41
2023-05-05T14:10:13.756Z,97541.56
2023-05-05T14:12:44.674Z,97538.56
2023-05-05T14:15:14.898Z,97536.91
2023-05-05T14:17:44.917Z,97533.34
2023-05-05T14:20:15.250Z,97535.56
2023-05-05T14:22:48.835Z,97540.72
2023-05-05T14:25:19.826Z,97527.41
2023-05-05T14:27:50.417Z,97531.25
2023-05-05T14:30:20.958Z,97524.91
2023-05-05T14:32:50.749Z,97526.06
2023-05-05T14:35:21.643Z,97526.44
2023-05-05T14:37:53.772Z,97523.28
2023-05-05T14:40:24.555Z,97523.84
2023-05-05T14:42:54.306Z,97528.41
2023-05-05T14:45:24.396Z,97526.31
2023-05-05T14:47:53.950Z,97522.34
2023-05-05T14:50:24.026Z,97526.13
2023-05-05T14:52:55.134Z,97517.53
2023-05-05T14:55:26.352Z,97522.31
2023-05-05T14:57:56.381Z,97531.16
2023-05-05T15:00:27.350Z,97526.63
2023-05-05T15:02:57.152Z,97522.53
2023-05-05T15:05:27.421Z,97524.97
2023-05-05T15:07:59.369Z,97516.19
2023-05-05T15:10:29.173Z,97524.19
2023-05-05T15:13:00.148Z,97516.41
2023-05-05T15:15:30.605Z,97532.75
2023-05-05T15:18:00.448Z,97526.16
2023-05-05T15:20:30.882Z,97525.25
2023-05-05T15:23:04.719Z,97524.88
2023-05-05T15:25:35.509Z,97523.84
2023-05-05T15:28:06.709Z,97526.34
2023-05-05T15:30:37.701Z,97527.88
2023-05-05T15:33:09.174Z,97525.59
2023-05-05T15:35:39.846Z,97512.41
2023-05-05T15:38:16.796Z,97522.78
2023-05-05T15:40:50.074Z,97521.44
2023-05-05T15:43:19.914Z,97516.91
2023-05-05T15:45:50.455Z,97516.91
2023-05-05T15:48:20.798Z,97516.00
2023-05-05T15:50:51.366Z,97512.34
2023-05-05T15:53:23.089Z,97507.50
2023-05-05T15:55:53.217Z,97507.66
2023-05-05T15:58:23.186Z,97508.53
2023-05-05T16:00:54.153Z,97511.47
2023-05-05T16:03:24.327Z,97511.22
2023-05-05T16:05:55.318Z,97499.78
2023-05-05T16:08:27.176Z,97501.56
2023-05-05T16:10:58.554Z,97504.25
2023-05-05T16:13:28.983Z,97498.25
2023-05-05T16:16:00.108Z,97497.19
2023-05-05T16:18:31.647Z,97506.66
2023-05-05T16:21:03.184Z,97499.97
2023-05-05T16:23:35.004Z,97497.97
2023-05-05T16:26:05.820Z,97499.78
2023-05-05T16:28:36.986Z,97498.69
2023-05-05T16:31:10.300Z,97495.34
2023-05-05T16:33:41.846Z,97498.81
2023-05-05T16:36:13.389Z,97500.09
2023-05-05T16:38:46.590Z,97501.25
2023-05-05T16:41:17.068Z,97496.50
2023-05-05T16:43:48.575Z,97495.34
2023-05-05T16:46:18.890Z,97499.75
2023-05-05T16:48:48.702Z,97500.97
2023-05-05T16:51:19.313Z,97494.13
2023-05-05T16:53:50.260Z,97502.34
2023-05-05T16:56:22.106Z,97498.06
2023-05-05T16:58:53.330Z,97497.81
2023-05-05T17:01:24.150Z,97500.84
2023-05-05T17:03:55.359Z,97503.06
2023-05-05T17:06:27.417Z,97508.59
2023-05-05T17:08:59.380Z,97508.47
2023-05-05T17:11:29.949Z,97515.41
2023-05-05T17:13:59.812Z,97526.13
2023-05-05T17:16:31.557Z,97520.50
2023-05-05T17:19:02.254Z,97512.13
2023-05-05T17:21:33.301Z,97517.53
2023-05-05T17:24:06.273Z,97516.75
2023-05-05T17:26:36.970Z,97519.22
2023-05-05T17:29:07.771Z,97521.72
2023-05-05T17:31:37.725Z,97524.41
2023-05-05T17:34:07.750Z,97525.31
2023-05-05T17:36:38.467Z,97528.88
2023-05-05T17:39:11.658Z,97530.50
2023-05-05T17:41:42.948Z,97525.00
2023-05-05T17:44:13.088Z,97526.72
2023-05-05T17:46:43.410Z,97534.53
2023-05-05T17:49:13.074Z,97543.44
2023-05-05T17:51:43.803Z,97538.13
2023-05-05T17:54:15.256Z,97543.84
2023-05-05T17:56:46.083Z,97544.38
2023-05-05T17:59:15.855Z,97541.63
2023-05-05T18:01:46.448Z,97546.28
2023-05-05T18:04:16.406Z,97550.91
2023-05-05T18:06:47.080Z,97548.53
2023-05-05T18:09:18.756Z,97557.59
2023-05-05T18:11:48.756Z,97556.72
2023-05-05T18:14:20.220Z,97551.16
2023-05-05T18:16:52.990Z,97558.41
2023-05-05T18:19:23.517Z,97553.44
2023-05-05T18:21:55.071Z,97552.66
2023-05-05T18:24:26.819Z,97553.34
2023-05-05T18:26:56.977Z,97555.75
2023-05-05T18:29:28.315Z,97560.06
2023-05-05T18:31:58.336Z,97561.06
2023-05-05T18:34:29.661Z,97560.00
2023-05-05T18:37:00.658Z,97570.31
2023-05-05T18:39:31.861Z,97574.16
2023-05-05T18:42:03.640Z,97574.47
2023-05-05T18:44:35.372Z,97581.16
2023-05-05T18:47:07.380Z,97576.72
2023-05-05T18:49:38.110Z,97583.78
2023-05-05T18:52:08.343Z,97587.44
2023-05-05T18:54:39.803Z,97582.84
2023-05-05T18:57:09.748Z,97587.88
2023-05-05T18:59:41.290Z,97592.91
2023-05-05T19:02:11.292Z,97589.25
2023-05-05T19:04:41.531Z,97585.56
2023-05-05T19:07:14.479Z,97599.00
2023-05-05T19:09:52.689Z,97605.84
2023-05-05T19:12:22.766Z,97601.25
2023-05-05T19:14:52.787Z,97609.00
2023-05-05T19:17:23.214Z,97613.19
2023-05-05T19:19:53.363Z,97608.97
2023-05-05T19:22:24.307Z,97610.91
2023-05-05T19:24:55.921Z,97616.50
2023-05-05T19:27:26.700Z,97616.22
2023-05-05T19:29:56.466Z,97614.34
2023-05-05T19:32:26.464Z,97614.16
2023-05-05T19:34:56.915Z,97628.59
2023-05-05T19:37:27.281Z,97624.13
2023-05-05T19:39:59.497Z,97618.78
2023-05-05T19:42:29.010Z,97623.66
2023-05-05T19:44:58.894Z,97624.97
2023-05-05T19:47:28.868Z,97621.88
2023-05-05T19:50:00.178Z,97619.00
2023-05-05T19:52:31.524Z,97616.84
2023-05-05T19:55:02.791Z,97613.31
2023-05-05T19:57:33.609Z,97607.94
2023-05-05T20:00:04.110Z,97605.69
2023-05-05T20:02:37.049Z,97617.78
2023-05-05T20:05:08.686Z,97612.66
2023-05-05T20:07:38.886Z,97614.69
2023-05-05T20:10:13.731Z,97615.63
2023-05-05T20:12:48.650Z,97613.72
2023-05-05T20:15:20.885Z,97612.25
2023-05-05T20:17:51.402Z,97611.03
2023-05-05T20:20:24.239Z,97610.88
2023-05-05T20:22:54.529Z,97605.81
2023-05-05T20:25:29.512Z,97612.59
2023-05-05T20:28:00.066Z,97606.19
2023-05-05T20:30:31.338Z,97609.91
2023-05-05T20:33:02.105Z,97604.34
2023-05-05T20:35:33.165Z,97603.31
2023-05-05T20:38:04.825Z,97605.66
2023-05-05T20:40:36.572Z,97609.72
2023-05-05T20:43:06.709Z,97617.97
2023-05-05T20:45:37.984Z,97618.22
2023-05-05T20:48:11.532Z,97621.03
2023-05-05T20:50:42.313Z,97618.84
2023-05-05T20:53:15.124Z,97619.16
2023-05-05T20:55:46.385Z,97618.94
2023-05-05T20:58:16.625Z,97616.75
2023-05-05T21:00:47.229Z,97628.28
2023-05-05T21:03:17.222Z,97626.44
2023-05-05T21:05:48.088Z,97632.22
2023-05-05T21:08:18.297Z,97626.53
2023-05-05T21:10:49.983Z,97629.94
2023-05-05T21:13:20.099Z,97625.25
2023-05-05T21:15:51.117Z,97628.41
2023-05-05T21:18:21.300Z,97620.56
2023-05-05T21:20:52.011Z,97620.75
2023-05-05T21:23:21.919Z,97627.75
2023-05-05T21:25:54.745Z,97617.56
2023-05-05T21:28:24.984Z,97612.91
2023-05-05T21:31:19.674Z,97610.38
2023-05-05T21:33:48.091Z,97605.00
2023-05-05T21:36:20.100Z,97600.97
2023-05-05T21:38:51.233Z,97611.78
2023-05-05T21:41:23.851Z,97605.03
2023-05-05T21:43:54.336Z,97605.66
2023-05-05T21:46:25.176Z,97602.16
2023-05-05T21:48:55.367Z,97606.66
2023-05-05T21:51:25.627Z,97608.28
2023-05-05T21:53:55.582Z,97602.50
2023-05-05T21:56:27.751Z,97605.66
2023-05-05T21:58:57.769Z,97613.00
2023-05-05T22:01:27.957Z,97609.38
2023-05-05T22:03:58.328Z,97606.34
2023-05-05T22:06:28.778Z,97609.50
2023-05-05T22:08:58.722Z,97612.13
2023-05-05T22:11:30.673Z,97606.34
2023-05-05T22:14:00.186Z,97603.91
2023-05-05T22:16:30.888Z,97604.91
2023-05-05T22:19:01.378Z,97599.22
2023-05-05T22:21:31.852Z,97598.13
2023-05-05T22:24:02.121Z,97594.53
2023-05-05T22:26:33.729Z,97597.59
2023-05-05T22:29:03.543Z,97591.47
2023-05-05T22:31:34.130Z,97588.53
2023-05-05T22:34:04.536Z,97581.31
2023-05-05T22:36:34.703Z,97584.25
2023-05-05T22:39:04.347Z,97579.69
2023-05-05T22:41:36.464Z,97576.84
2023-05-05T22:44:07.097Z,97564.28
2023-05-05T22:46:37.796Z,97567.75
2023-05-05T22:49:08.710Z,97563.84
2023-05-05T22:51:40.694Z,97562.97
2023-05-05T22:54:10.454Z,97566.47
2023-05-05T22:56:42.362Z,97561.13
2023-05-05T22:59:12.230Z,97555.19
2023-05-05T23:01:43.870Z,97568.31
2023-05-05T23:04:14.990Z,97568.53
2023-05-05T23:06:46.649Z,97568.22
2023-05-05T23:09:17.292Z,97563.53
2023-05-05T23:11:49.383Z,97565.06
2023-05-05T23:14:19.922Z,97552.16
2023-05-05T23:16:49.923Z,97557.47
2023-05-05T23:19:20.804Z,97562.31
2023-05-05T23:21:53.664Z,97553.59
2023-05-05T23:24:24.412Z,97554.56
2023-05-05T23:26:56.950Z,97556.75
2023-05-05T23:29:27.200Z,97550.94
2023-05-05T23:31:57.563Z,97551.41
2023-05-05T23:34:28.744Z,97549.31
2023-05-05T23:36:58.725Z,97532.59
2023-05-05T23:39:29.680Z,97532.72
2023-05-05T23:42:02.787Z,97527.59
2023-05-05T23:44:35.271Z,97519.38
2023-05-05T23:47:05.566Z,97516.88
2023-05-05T23:49:35.974Z,97516.22
2023-05-05T23:52:06.543Z,97521.81
2023-05-05T23:54:36.602Z,97529.66
2023-05-05T23:57:08.685Z,97529.03
2023-05-05T23:59:38.879Z,97528.00
